sensor_id;sensor_type;location;lat;lon;timestamp;temperature;humidity
33865;DHT22;20159;51.072;13.526;2023-03-02T00:01:45;-1.00;91.20
33865;DHT22;20159;51.072;13.526;2023-03-02T00:04:37;-1.00;91.10
33865;DHT22;20159;51.072;13.526;2023-03-02T00:07:06;-1.10;91.30
33865;DHT22;20159;51.072;13.526;2023-03-02T00:09:33;-1.10;91.10
33865;DHT22;20159;51.072;13.526;2023-03-02T00:11:59;-1.20;91.50
33865;DHT22;20159;51.072;13.526;2023-03-02T00:14:25;-1.20;91.70
33865;DHT22;20159;51.072;13.526;2023-03-02T00:16:50;-1.20;91.80
33865;DHT22;20159;51.072;13.526;2023-03-02T00:19:16;-1.30;91.50
33865;DHT22;20159;51.072;13.526;2023-03-02T00:21:42;-1.30;91.50
33865;DHT22;20159;51.072;13.526;2023-03-02T00:24:07;-1.30;91.60
33865;DHT22;20159;51.072;13.526;2023-03-02T00:26:34;-1.30;91.60
33865;DHT22;20159;51.072;13.526;2023-03-02T00:29:00;-1.30;91.90
33865;DHT22;20159;51.072;13.526;2023-03-02T00:31:26;-1.40;91.70
33865;DHT22;20159;51.072;13.526;2023-03-02T00:33:52;-1.40;91.60
33865;DHT22;20159;51.072;13.526;2023-03-02T00:36:22;-1.40;91.60
33865;DHT22;20159;51.072;13.526;2023-03-02T00:38:47;-1.50;91.60
33865;DHT22;20159;51.072;13.526;2023-03-02T00:41:14;-1.50;92.00
33865;DHT22;20159;51.072;13.526;2023-03-02T00:43:40;-1.50;92.00
33865;DHT22;20159;51.072;13.526;2023-03-02T00:46:15;-0.50;91.90
33865;DHT22;20159;51.072;13.526;2023-03-02T00:48:41;-1.60;91.80
33865;DHT22;20159;51.072;13.526;2023-03-02T00:51:06;-1.60;91.90
33865;DHT22;20159;51.072;13.526;2023-03-02T00:53:33;-1.60;92.10
33865;DHT22;20159;51.072;13.526;2023-03-02T00:56:00;-1.70;92.30
33865;DHT22;20159;51.072;13.526;2023-03-02T00:58:26;-1.70;92.20
33865;DHT22;20159;51.072;13.526;2023-03-02T01:00:52;-1.70;92.30
33865;DHT22;20159;51.072;13.526;2023-03-02T01:03:18;-1.70;92.40
33865;DHT22;20159;51.072;13.526;2023-03-02T01:05:44;-1.70;92.20
33865;DHT22;20159;51.072;13.526;2023-03-02T01:08:09;-1.70;92.10
33865;DHT22;20159;51.072;13.526;2023-03-02T01:10:35;-1.80;91.90
33865;DHT22;20159;51.072;13.526;2023-03-02T01:13:03;-1.80;92.30
33865;DHT22;20159;51.072;13.526;2023-03-02T01:15:28;-1.80;92.30
33865;DHT22;20159;51.072;13.526;2023-03-02T01:17:54;-1.80;92.30
33865;DHT22;20159;51.072;13.526;2023-03-02T01:20:20;-1.80;92.40
33865;DHT22;20159;51.072;13.526;2023-03-02T01:22:45;-1.90;92.70
33865;DHT22;20159;51.072;13.526;2023-03-02T01:25:11;-1.90;92.70
33865;DHT22;20159;51.072;13.526;2023-03-02T01:27:37;-1.90;92.80
33865;DHT22;20159;51.072;13.526;2023-03-02T01:30:03;-1.90;93.00
33865;DHT22;20159;51.072;13.526;2023-03-02T01:32:29;-1.90;92.70
33865;DHT22;20159;51.072;13.526;2023-03-02T01:34:55;-1.90;92.90
33865;DHT22;20159;51.072;13.526;2023-03-02T01:37:20;-1.90;92.70
33865;DHT22;20159;51.072;13.526;2023-03-02T01:39:48;-1.90;92.80
33865;DHT22;20159;51.072;13.526;2023-03-02T01:42:13;-2.00;92.80
33865;DHT22;20159;51.072;13.526;2023-03-02T01:44:50;-2.00;92.60
33865;DHT22;20159;51.072;13.526;2023-03-02T01:47:21;-2.00;92.30
33865;DHT22;20159;51.072;13.526;2023-03-02T01:49:52;-2.10;92.30
33865;DHT22;20159;51.072;13.526;2023-03-02T01:52:18;-2.10;92.30
33865;DHT22;20159;51.072;13.526;2023-03-02T01:54:46;-2.10;92.50
33865;DHT22;20159;51.072;13.526;2023-03-02T01:57:18;-2.20;92.70
33865;DHT22;20159;51.072;13.526;2023-03-02T01:59:45;-2.20;92.70
33865;DHT22;20159;51.072;13.526;2023-03-02T02:02:11;-2.20;92.80
33865;DHT22;20159;51.072;13.526;2023-03-02T02:04:39;-2.20;92.70
33865;DHT22;20159;51.072;13.526;2023-03-02T02:07:08;-1.80;92.70
33865;DHT22;20159;51.072;13.526;2023-03-02T02:09:37;-2.30;92.50
33865;DHT22;20159;51.072;13.526;2023-03-02T02:12:04;-2.10;92.70
33865;DHT22;20159;51.072;13.526;2023-03-02T02:14:30;-2.30;92.50
33865;DHT22;20159;51.072;13.526;2023-03-02T02:16:56;-2.30;92.40
33865;DHT22;20159;51.072;13.526;2023-03-02T02:19:50;-1.00;92.60
33865;DHT22;20159;51.072;13.526;2023-03-02T02:22:29;-2.40;92.50
33865;DHT22;20159;51.072;13.526;2023-03-02T02:25:01;-2.40;92.40
33865;DHT22;20159;51.072;13.526;2023-03-02T02:27:27;-2.40;92.40
33865;DHT22;20159;51.072;13.526;2023-03-02T02:30:00;-2.40;92.60
33865;DHT22;20159;51.072;13.526;2023-03-02T02:32:30;-2.50;92.70
33865;DHT22;20159;51.072;13.526;2023-03-02T02:35:02;-2.40;92.80
33865;DHT22;20159;51.072;13.526;2023-03-02T02:37:32;-2.50;92.70
33865;DHT22;20159;51.072;13.526;2023-03-02T02:39:58;-2.50;92.80
33865;DHT22;20159;51.072;13.526;2023-03-02T02:42:51;-2.50;92.80
33865;DHT22;20159;51.072;13.526;2023-03-02T02:45:25;-2.50;93.20
33865;DHT22;20159;51.072;13.526;2023-03-02T02:47:52;-2.50;93.10
33865;DHT22;20159;51.072;13.526;2023-03-02T02:50:25;-2.50;93.00
33865;DHT22;20159;51.072;13.526;2023-03-02T02:53:11;-2.50;92.90
33865;DHT22;20159;51.072;13.526;2023-03-02T02:55:37;-2.60;93.00
33865;DHT22;20159;51.072;13.526;2023-03-02T03:00:54;-2.60;92.90
33865;DHT22;20159;51.072;13.526;2023-03-02T03:03:32;-2.50;92.90
33865;DHT22;20159;51.072;13.526;2023-03-02T03:06:00;-2.60;92.80
33865;DHT22;20159;51.072;13.526;2023-03-02T03:11:16;-2.60;92.70
33865;DHT22;20159;51.072;13.526;2023-03-02T03:13:45;-2.60;92.40
33865;DHT22;20159;51.072;13.526;2023-03-02T03:16:14;-2.60;92.30
33865;DHT22;20159;51.072;13.526;2023-03-02T03:18:44;-2.60;92.20
33865;DHT22;20159;51.072;13.526;2023-03-02T03:21:11;-2.70;92.10
33865;DHT22;20159;51.072;13.526;2023-03-02T03:23:36;-2.70;92.00
33865;DHT22;20159;51.072;13.526;2023-03-02T03:26:04;-2.80;92.10
33865;DHT22;20159;51.072;13.526;2023-03-02T03:28:29;-2.80;91.80
33865;DHT22;20159;51.072;13.526;2023-03-02T03:30:55;-2.80;91.80
33865;DHT22;20159;51.072;13.526;2023-03-02T03:33:21;-2.80;91.90
33865;DHT22;20159;51.072;13.526;2023-03-02T03:35:46;-2.90;91.90
33865;DHT22;20159;51.072;13.526;2023-03-02T03:38:11;-2.90;91.90
33865;DHT22;20159;51.072;13.526;2023-03-02T03:40:37;-2.90;91.90
33865;DHT22;20159;51.072;13.526;2023-03-02T03:43:03;-2.90;91.90
33865;DHT22;20159;51.072;13.526;2023-03-02T03:45:29;-2.90;92.10
33865;DHT22;20159;51.072;13.526;2023-03-02T03:47:55;-2.90;92.30
33865;DHT22;20159;51.072;13.526;2023-03-02T03:50:21;-3.00;92.40
33865;DHT22;20159;51.072;13.526;2023-03-02T03:52:47;-3.00;92.40
33865;DHT22;20159;51.072;13.526;2023-03-02T03:55:13;-3.00;92.30
33865;DHT22;20159;51.072;13.526;2023-03-02T03:57:38;-3.00;92.30
33865;DHT22;20159;51.072;13.526;2023-03-02T04:00:10;-3.00;92.40
33865;DHT22;20159;51.072;13.526;2023-03-02T04:02:39;-3.00;92.20
33865;DHT22;20159;51.072;13.526;2023-03-02T04:05:05;-3.00;92.00
33865;DHT22;20159;51.072;13.526;2023-03-02T04:07:32;-3.00;92.00
33865;DHT22;20159;51.072;13.526;2023-03-02T04:09:57;-3.00;92.10
33865;DHT22;20159;51.072;13.526;2023-03-02T04:12:38;-3.00;92.20
33865;DHT22;20159;51.072;13.526;2023-03-02T04:15:06;-3.10;92.30
33865;DHT22;20159;51.072;13.526;2023-03-02T04:17:32;-3.10;92.20
33865;DHT22;20159;51.072;13.526;2023-03-02T04:19:58;-3.10;92.30
33865;DHT22;20159;51.072;13.526;2023-03-02T04:22:24;-3.10;92.30
33865;DHT22;20159;51.072;13.526;2023-03-02T04:24:49;-3.10;92.20
33865;DHT22;20159;51.072;13.526;2023-03-02T04:27:15;-3.10;92.10
33865;DHT22;20159;51.072;13.526;2023-03-02T04:29:41;-3.10;92.20
33865;DHT22;20159;51.072;13.526;2023-03-02T04:32:08;-3.10;92.30
33865;DHT22;20159;51.072;13.526;2023-03-02T04:34:34;-3.10;92.30
33865;DHT22;20159;51.072;13.526;2023-03-02T04:37:00;-3.10;92.20
33865;DHT22;20159;51.072;13.526;2023-03-02T04:39:26;-3.10;92.30
33865;DHT22;20159;51.072;13.526;2023-03-02T04:41:52;-3.10;92.30
33865;DHT22;20159;51.072;13.526;2023-03-02T04:44:18;-3.20;92.20
33865;DHT22;20159;51.072;13.526;2023-03-02T04:46:44;-3.20;92.10
33865;DHT22;20159;51.072;13.526;2023-03-02T04:49:10;-3.20;92.10
33865;DHT22;20159;51.072;13.526;2023-03-02T04:51:39;-3.20;92.10
33865;DHT22;20159;51.072;13.526;2023-03-02T04:54:09;-3.20;92.00
33865;DHT22;20159;51.072;13.526;2023-03-02T04:56:35;-3.30;91.80
33865;DHT22;20159;51.072;13.526;2023-03-02T04:59:00;-3.30;91.60
33865;DHT22;20159;51.072;13.526;2023-03-02T05:01:26;-3.30;91.40
33865;DHT22;20159;51.072;13.526;2023-03-02T05:03:51;-3.30;91.30
33865;DHT22;20159;51.072;13.526;2023-03-02T05:06:19;-3.40;91.20
33865;DHT22;20159;51.072;13.526;2023-03-02T05:08:46;-3.40;91.20
33865;DHT22;20159;51.072;13.526;2023-03-02T05:11:13;-3.40;91.30
33865;DHT22;20159;51.072;13.526;2023-03-02T05:13:48;-3.50;91.10
33865;DHT22;20159;51.072;13.526;2023-03-02T05:16:14;-3.50;91.00
33865;DHT22;20159;51.072;13.526;2023-03-02T05:18:39;-3.60;91.00
33865;DHT22;20159;51.072;13.526;2023-03-02T05:21:05;-3.60;91.00
33865;DHT22;20159;51.072;13.526;2023-03-02T05:23:30;-3.60;91.00
33865;DHT22;20159;51.072;13.526;2023-03-02T05:25:56;-3.60;91.00
33865;DHT22;20159;51.072;13.526;2023-03-02T05:28:24;-3.60;91.10
33865;DHT22;20159;51.072;13.526;2023-03-02T05:30:50;-3.60;91.10
33865;DHT22;20159;51.072;13.526;2023-03-02T05:33:16;-3.70;91.20
33865;DHT22;20159;51.072;13.526;2023-03-02T05:35:42;-3.70;91.10
33865;DHT22;20159;51.072;13.526;2023-03-02T05:38:08;-3.70;91.10
33865;DHT22;20159;51.072;13.526;2023-03-02T05:40:34;-3.70;91.10
33865;DHT22;20159;51.072;13.526;2023-03-02T05:43:00;-3.70;91.20
33865;DHT22;20159;51.072;13.526;2023-03-02T05:45:35;-3.70;91.40
33865;DHT22;20159;51.072;13.526;2023-03-02T05:48:01;-3.70;91.60
33865;DHT22;20159;51.072;13.526;2023-03-02T05:50:27;-3.70;91.60
33865;DHT22;20159;51.072;13.526;2023-03-02T05:52:52;-3.70;91.60
33865;DHT22;20159;51.072;13.526;2023-03-02T05:55:18;-3.70;91.60
33865;DHT22;20159;51.072;13.526;2023-03-02T05:57:44;-3.70;91.70
33865;DHT22;20159;51.072;13.526;2023-03-02T06:00:11;-3.70;91.70
33865;DHT22;20159;51.072;13.526;2023-03-02T06:02:37;-3.60;91.80
33865;DHT22;20159;51.072;13.526;2023-03-02T06:05:04;-3.60;91.80
33865;DHT22;20159;51.072;13.526;2023-03-02T06:07:30;-3.60;91.60
33865;DHT22;20159;51.072;13.526;2023-03-02T06:09:56;-3.60;91.50
33865;DHT22;20159;51.072;13.526;2023-03-02T06:12:21;-3.60;91.60
33865;DHT22;20159;51.072;13.526;2023-03-02T06:14:47;-3.50;91.80
33865;DHT22;20159;51.072;13.526;2023-03-02T06:17:12;-3.50;92.00
33865;DHT22;20159;51.072;13.526;2023-03-02T06:19:38;-3.50;92.00
33865;DHT22;20159;51.072;13.526;2023-03-02T06:22:03;-3.50;91.90
33865;DHT22;20159;51.072;13.526;2023-03-02T06:24:29;-3.40;91.80
33865;DHT22;20159;51.072;13.526;2023-03-02T06:26:54;-3.40;91.80
33865;DHT22;20159;51.072;13.526;2023-03-02T06:29:21;-3.40;91.70
33865;DHT22;20159;51.072;13.526;2023-03-02T06:31:46;-3.30;91.50
33865;DHT22;20159;51.072;13.526;2023-03-02T06:34:12;-3.30;91.40
33865;DHT22;20159;51.072;13.526;2023-03-02T06:36:37;-3.20;91.40
33865;DHT22;20159;51.072;13.526;2023-03-02T06:39:04;-3.20;91.40
33865;DHT22;20159;51.072;13.526;2023-03-02T06:41:30;-3.10;91.40
33865;DHT22;20159;51.072;13.526;2023-03-02T06:43:58;-3.10;91.60
33865;DHT22;20159;51.072;13.526;2023-03-02T06:46:24;-3.00;91.80
33865;DHT22;20159;51.072;13.526;2023-03-02T06:48:49;-3.00;91.80
33865;DHT22;20159;51.072;13.526;2023-03-02T06:51:15;-2.90;91.70
33865;DHT22;20159;51.072;13.526;2023-03-02T06:53:40;-2.80;91.90
33865;DHT22;20159;51.072;13.526;2023-03-02T06:56:06;-2.70;92.10
33865;DHT22;20159;51.072;13.526;2023-03-02T06:58:31;-2.70;92.20
33865;DHT22;20159;51.072;13.526;2023-03-02T07:00:57;-2.50;92.40
33865;DHT22;20159;51.072;13.526;2023-03-02T07:03:22;-2.30;93.00
33865;DHT22;20159;51.072;13.526;2023-03-02T07:05:48;-2.00;94.10
33865;DHT22;20159;51.072;13.526;2023-03-02T07:08:16;-1.50;95.30
33865;DHT22;20159;51.072;13.526;2023-03-02T07:10:41;-0.90;96.30
33865;DHT22;20159;51.072;13.526;2023-03-02T07:13:06;-0.20;97.20
33865;DHT22;20159;51.072;13.526;2023-03-02T07:15:32;0.50;97.80
33865;DHT22;20159;51.072;13.526;2023-03-02T07:17:57;1.30;98.20
33865;DHT22;20159;51.072;13.526;2023-03-02T07:20:23;2.10;98.70
33865;DHT22;20159;51.072;13.526;2023-03-02T07:22:48;2.90;99.00
33865;DHT22;20159;51.072;13.526;2023-03-02T07:25:14;3.70;99.00
33865;DHT22;20159;51.072;13.526;2023-03-02T07:27:39;4.50;98.70
33865;DHT22;20159;51.072;13.526;2023-03-02T07:30:06;5.30;98.10
33865;DHT22;20159;51.072;13.526;2023-03-02T07:32:31;6.00;97.50
33865;DHT22;20159;51.072;13.526;2023-03-02T07:34:57;6.70;96.50
33865;DHT22;20159;51.072;13.526;2023-03-02T07:37:22;7.30;95.40
33865;DHT22;20159;51.072;13.526;2023-03-02T07:39:48;7.90;94.50
33865;DHT22;20159;51.072;13.526;2023-03-02T07:42:15;8.50;94.40
33865;DHT22;20159;51.072;13.526;2023-03-02T07:44:41;9.00;94.70
33865;DHT22;20159;51.072;13.526;2023-03-02T07:47:07;9.60;92.40
33865;DHT22;20159;51.072;13.526;2023-03-02T07:49:33;10.20;90.50
33865;DHT22;20159;51.072;13.526;2023-03-02T07:52:00;10.70;89.50
33865;DHT22;20159;51.072;13.526;2023-03-02T07:54:26;11.10;85.20
33865;DHT22;20159;51.072;13.526;2023-03-02T07:56:52;11.50;83.90
33865;DHT22;20159;51.072;13.526;2023-03-02T07:59:17;11.90;81.80
33865;DHT22;20159;51.072;13.526;2023-03-02T08:01:43;12.30;80.50
33865;DHT22;20159;51.072;13.526;2023-03-02T08:04:08;12.60;78.20
33865;DHT22;20159;51.072;13.526;2023-03-02T08:06:34;12.90;76.90
33865;DHT22;20159;51.072;13.526;2023-03-02T08:09:02;13.10;75.70
33865;DHT22;20159;51.072;13.526;2023-03-02T08:11:27;13.40;73.50
33865;DHT22;20159;51.072;13.526;2023-03-02T08:13:53;13.60;72.00
33865;DHT22;20159;51.072;13.526;2023-03-02T08:16:18;13.90;73.80
33865;DHT22;20159;51.072;13.526;2023-03-02T08:18:44;14.10;72.30
33865;DHT22;20159;51.072;13.526;2023-03-02T08:21:13;14.30;72.80
33865;DHT22;20159;51.072;13.526;2023-03-02T08:23:40;14.60;71.00
33865;DHT22;20159;51.072;13.526;2023-03-02T08:26:05;14.70;71.00
33865;DHT22;20159;51.072;13.526;2023-03-02T08:28:32;14.90;69.40
33865;DHT22;20159;51.072;13.526;2023-03-02T08:30:59;15.10;69.20
33865;DHT22;20159;51.072;13.526;2023-03-02T08:33:26;15.20;68.10
33865;DHT22;20159;51.072;13.526;2023-03-02T08:36:00;15.40;65.00
33865;DHT22;20159;51.072;13.526;2023-03-02T08:38:26;15.50;61.00
33865;DHT22;20159;51.072;13.526;2023-03-02T08:40:52;15.50;63.70
33865;DHT22;20159;51.072;13.526;2023-03-02T08:43:19;15.60;65.70
33865;DHT22;20159;51.072;13.526;2023-03-02T08:45:45;18.30;65.20
33865;DHT22;20159;51.072;13.526;2023-03-02T08:48:14;15.80;64.60
33865;DHT22;20159;51.072;13.526;2023-03-02T08:50:39;15.90;62.70
33865;DHT22;20159;51.072;13.526;2023-03-02T08:53:05;15.90;61.40
33865;DHT22;20159;51.072;13.526;2023-03-02T08:55:34;15.90;62.90
33865;DHT22;20159;51.072;13.526;2023-03-02T08:57:59;16.00;59.50
33865;DHT22;20159;51.072;13.526;2023-03-02T09:00:25;16.10;60.80
33865;DHT22;20159;51.072;13.526;2023-03-02T09:02:50;16.20;63.00
33865;DHT22;20159;51.072;13.526;2023-03-02T09:05:16;16.30;62.20
33865;DHT22;20159;51.072;13.526;2023-03-02T09:07:42;16.40;60.50
33865;DHT22;20159;51.072;13.526;2023-03-02T09:10:08;16.40;60.10
33865;DHT22;20159;51.072;13.526;2023-03-02T09:12:34;16.50;57.50
33865;DHT22;20159;51.072;13.526;2023-03-02T09:14:59;16.60;59.30
33865;DHT22;20159;51.072;13.526;2023-03-02T09:17:25;16.70;59.30
33865;DHT22;20159;51.072;13.526;2023-03-02T09:19:50;16.80;56.00
33865;DHT22;20159;51.072;13.526;2023-03-02T09:22:16;16.80;57.10
33865;DHT22;20159;51.072;13.526;2023-03-02T09:24:41;16.90;56.70
33865;DHT22;20159;51.072;13.526;2023-03-02T09:27:07;16.90;56.40
33865;DHT22;20159;51.072;13.526;2023-03-02T09:29:33;17.00;54.00
33865;DHT22;20159;51.072;13.526;2023-03-02T09:31:58;17.00;53.40
33865;DHT22;20159;51.072;13.526;2023-03-02T09:34:23;17.00;54.40
33865;DHT22;20159;51.072;13.526;2023-03-02T09:36:49;17.00;54.10
33865;DHT22;20159;51.072;13.526;2023-03-02T09:39:15;17.00;52.90
33865;DHT22;20159;51.072;13.526;2023-03-02T09:47:48;17.00;53.80
33865;DHT22;20159;51.072;13.526;2023-03-02T09:50:26;17.10;52.70
33865;DHT22;20159;51.072;13.526;2023-03-02T09:55:44;17.20;49.80
33865;DHT22;20159;51.072;13.526;2023-03-02T09:58:16;17.20;51.60
33865;DHT22;20159;51.072;13.526;2023-03-02T10:00:44;17.20;51.30
33865;DHT22;20159;51.072;13.526;2023-03-02T10:05:47;17.20;51.40
33865;DHT22;20159;51.072;13.526;2023-03-02T10:08:22;17.20;51.10
33865;DHT22;20159;51.072;13.526;2023-03-02T10:10:56;17.10;50.40
33865;DHT22;20159;51.072;13.526;2023-03-02T10:13:25;17.10;50.20
33865;DHT22;20159;51.072;13.526;2023-03-02T10:16:04;17.00;52.10
33865;DHT22;20159;51.072;13.526;2023-03-02T10:18:48;17.00;50.10
33865;DHT22;20159;51.072;13.526;2023-03-02T10:21:26;16.80;49.60
33865;DHT22;20159;51.072;13.526;2023-03-02T10:26:46;16.40;47.40
33865;DHT22;20159;51.072;13.526;2023-03-02T10:29:33;16.10;46.70
33865;DHT22;20159;51.072;13.526;2023-03-02T10:34:40;15.60;48.20
33865;DHT22;20159;51.072;13.526;2023-03-02T10:37:16;15.40;47.30
33865;DHT22;20159;51.072;13.526;2023-03-02T10:39:42;15.20;45.70
33865;DHT22;20159;51.072;13.526;2023-03-02T10:42:14;15.00;49.70
33865;DHT22;20159;51.072;13.526;2023-03-02T10:44:44;14.90;47.80
33865;DHT22;20159;51.072;13.526;2023-03-02T10:47:26;14.70;48.20
33865;DHT22;20159;51.072;13.526;2023-03-02T10:49:54;14.70;47.80
33865;DHT22;20159;51.072;13.526;2023-03-02T10:52:25;12.20;45.10
33865;DHT22;20159;51.072;13.526;2023-03-02T10:55:03;14.60;46.50
33865;DHT22;20159;51.072;13.526;2023-03-02T10:57:41;14.60;46.30
33865;DHT22;20159;51.072;13.526;2023-03-02T11:00:24;14.40;45.20
33865;DHT22;20159;51.072;13.526;2023-03-02T11:02:55;14.30;45.90
33865;DHT22;20159;51.072;13.526;2023-03-02T11:05:30;14.20;47.20
33865;DHT22;20159;51.072;13.526;2023-03-02T11:08:02;14.20;47.70
33865;DHT22;20159;51.072;13.526;2023-03-02T11:10:32;14.10;45.40
33865;DHT22;20159;51.072;13.526;2023-03-02T11:12:59;14.20;45.50
33865;DHT22;20159;51.072;13.526;2023-03-02T11:18:23;14.10;45.30
33865;DHT22;20159;51.072;13.526;2023-03-02T11:20:52;14.00;43.00
33865;DHT22;20159;51.072;13.526;2023-03-02T11:23:31;14.00;47.90
33865;DHT22;20159;51.072;13.526;2023-03-02T11:26:17;13.90;44.50
33865;DHT22;20159;51.072;13.526;2023-03-02T11:28:51;13.80;45.30
33865;DHT22;20159;51.072;13.526;2023-03-02T11:31:31;13.70;44.10
33865;DHT22;20159;51.072;13.526;2023-03-02T11:36:42;13.50;44.10
33865;DHT22;20159;51.072;13.526;2023-03-02T11:39:15;13.40;43.50
33865;DHT22;20159;51.072;13.526;2023-03-02T11:41:42;13.40;43.70
33865;DHT22;20159;51.072;13.526;2023-03-02T11:44:16;13.40;43.20
33865;DHT22;20159;51.072;13.526;2023-03-02T11:46:47;13.40;42.90
33865;DHT22;20159;51.072;13.526;2023-03-02T11:49:38;13.50;43.90
33865;DHT22;20159;51.072;13.526;2023-03-02T11:52:19;13.50;44.10
33865;DHT22;20159;51.072;13.526;2023-03-02T11:54:51;13.50;42.70
33865;DHT22;20159;51.072;13.526;2023-03-02T11:57:21;13.50;42.40
33865;DHT22;20159;51.072;13.526;2023-03-02T11:59:50;13.50;42.50
33865;DHT22;20159;51.072;13.526;2023-03-02T12:02:16;13.60;44.30
33865;DHT22;20159;51.072;13.526;2023-03-02T12:04:42;13.80;43.20
33865;DHT22;20159;51.072;13.526;2023-03-02T12:07:18;13.90;42.40
33865;DHT22;20159;51.072;13.526;2023-03-02T12:09:43;14.00;43.90
33865;DHT22;20159;51.072;13.526;2023-03-02T12:12:39;14.20;42.40
33865;DHT22;20159;51.072;13.526;2023-03-02T12:15:49;14.30;42.50
33865;DHT22;20159;51.072;13.526;2023-03-02T12:23:36;14.50;42.90
33865;DHT22;20159;51.072;13.526;2023-03-02T12:31:54;14.50;40.90
33865;DHT22;20159;51.072;13.526;2023-03-02T12:36:58;14.50;40.30
33865;DHT22;20159;51.072;13.526;2023-03-02T12:42:22;14.50;39.50
33865;DHT22;20159;51.072;13.526;2023-03-02T12:47:44;14.40;39.80
33865;DHT22;20159;51.072;13.526;2023-03-02T12:50:20;14.30;39.90
33865;DHT22;20159;51.072;13.526;2023-03-02T12:53:01;14.30;38.40
33865;DHT22;20159;51.072;13.526;2023-03-02T12:55:27;14.20;40.60
33865;DHT22;20159;51.072;13.526;2023-03-02T12:57:58;14.20;41.90
33865;DHT22;20159;51.072;13.526;2023-03-02T13:00:34;15.80;42.50
33865;DHT22;20159;51.072;13.526;2023-03-02T13:03:00;14.10;40.10
33865;DHT22;20159;51.072;13.526;2023-03-02T13:05:33;14.10;40.70
33865;DHT22;20159;51.072;13.526;2023-03-02T13:07:59;14.10;39.60
33865;DHT22;20159;51.072;13.526;2023-03-02T13:13:17;14.10;39.40
33865;DHT22;20159;51.072;13.526;2023-03-02T13:15:51;14.10;40.40
33865;DHT22;20159;51.072;13.526;2023-03-02T13:18:18;14.10;39.90
33865;DHT22;20159;51.072;13.526;2023-03-02T13:20:44;14.10;41.70
33865;DHT22;20159;51.072;13.526;2023-03-02T13:23:13;14.10;41.10
33865;DHT22;20159;51.072;13.526;2023-03-02T13:28:29;14.20;41.80
33865;DHT22;20159;51.072;13.526;2023-03-02T13:31:21;14.30;44.20
33865;DHT22;20159;51.072;13.526;2023-03-02T13:33:46;14.30;42.90
33865;DHT22;20159;51.072;13.526;2023-03-02T13:36:19;14.40;44.10
33865;DHT22;20159;51.072;13.526;2023-03-02T13:38:57;14.50;42.70
33865;DHT22;20159;51.072;13.526;2023-03-02T13:41:27;14.50;42.20
33865;DHT22;20159;51.072;13.526;2023-03-02T13:43:53;14.60;42.10
33865;DHT22;20159;51.072;13.526;2023-03-02T13:48:55;14.70;42.90
33865;DHT22;20159;51.072;13.526;2023-03-02T13:51:21;14.80;43.60
33865;DHT22;20159;51.072;13.526;2023-03-02T13:53:53;14.80;42.50
33865;DHT22;20159;51.072;13.526;2023-03-02T13:56:27;14.90;41.90
33865;DHT22;20159;51.072;13.526;2023-03-02T13:58:53;14.90;42.20
33865;DHT22;20159;51.072;13.526;2023-03-02T14:01:19;14.90;43.50
33865;DHT22;20159;51.072;13.526;2023-03-02T14:03:44;14.90;41.90
33865;DHT22;20159;51.072;13.526;2023-03-02T14:06:10;14.90;41.90
33865;DHT22;20159;51.072;13.526;2023-03-02T14:08:35;14.90;42.50
33865;DHT22;20159;51.072;13.526;2023-03-02T14:11:02;14.90;42.40
33865;DHT22;20159;51.072;13.526;2023-03-02T14:15:56;14.80;42.30
33865;DHT22;20159;51.072;13.526;2023-03-02T14:18:54;14.80;42.30
33865;DHT22;20159;51.072;13.526;2023-03-02T14:21:23;14.70;41.10
33865;DHT22;20159;51.072;13.526;2023-03-02T14:23:50;14.70;41.00
33865;DHT22;20159;51.072;13.526;2023-03-02T14:29:09;14.50;40.60
33865;DHT22;20159;51.072;13.526;2023-03-02T14:31:37;14.40;42.00
33865;DHT22;20159;51.072;13.526;2023-03-02T14:34:02;14.30;43.50
33865;DHT22;20159;51.072;13.526;2023-03-02T14:36:31;14.20;43.00
33865;DHT22;20159;51.072;13.526;2023-03-02T14:38:59;14.10;42.70
33865;DHT22;20159;51.072;13.526;2023-03-02T14:41:27;14.00;42.60
33865;DHT22;20159;51.072;13.526;2023-03-02T14:43:52;14.00;41.30
33865;DHT22;20159;51.072;13.526;2023-03-02T14:46:18;13.80;41.90
33865;DHT22;20159;51.072;13.526;2023-03-02T14:48:43;13.70;42.20
33865;DHT22;20159;51.072;13.526;2023-03-02T14:51:21;13.70;41.60
33865;DHT22;20159;51.072;13.526;2023-03-02T14:53:50;13.60;42.30
33865;DHT22;20159;51.072;13.526;2023-03-02T14:56:21;13.60;41.80
33865;DHT22;20159;51.072;13.526;2023-03-02T14:58:49;13.60;42.10
33865;DHT22;20159;51.072;13.526;2023-03-02T15:01:15;13.60;42.20
33865;DHT22;20159;51.072;13.526;2023-03-02T15:03:40;13.60;41.70
33865;DHT22;20159;51.072;13.526;2023-03-02T15:06:26;13.50;42.40
33865;DHT22;20159;51.072;13.526;2023-03-02T15:08:58;13.40;43.40
33865;DHT22;20159;51.072;13.526;2023-03-02T15:11:25;13.40;42.00
33865;DHT22;20159;51.072;13.526;2023-03-02T15:13:50;13.30;43.00
33865;DHT22;20159;51.072;13.526;2023-03-02T15:16:16;13.20;42.70
33865;DHT22;20159;51.072;13.526;2023-03-02T15:18:42;13.20;42.10
33865;DHT22;20159;51.072;13.526;2023-03-02T15:21:13;13.10;41.60
33865;DHT22;20159;51.072;13.526;2023-03-02T15:23:39;13.00;41.10
33865;DHT22;20159;51.072;13.526;2023-03-02T15:26:05;12.90;42.80
33865;DHT22;20159;51.072;13.526;2023-03-02T15:28:30;12.80;42.00
33865;DHT22;20159;51.072;13.526;2023-03-02T15:30:56;12.70;42.60
33865;DHT22;20159;51.072;13.526;2023-03-02T15:33:22;12.60;43.80
33865;DHT22;20159;51.072;13.526;2023-03-02T15:35:53;12.60;42.70
33865;DHT22;20159;51.072;13.526;2023-03-02T15:38:19;12.50;43.40
33865;DHT22;20159;51.072;13.526;2023-03-02T15:40:45;12.30;43.00
33865;DHT22;20159;51.072;13.526;2023-03-02T15:43:10;12.30;43.00
33865;DHT22;20159;51.072;13.526;2023-03-02T15:45:36;12.10;43.80
33865;DHT22;20159;51.072;13.526;2023-03-02T15:48:02;12.00;43.70
33865;DHT22;20159;51.072;13.526;2023-03-02T15:50:28;12.00;44.40
33865;DHT22;20159;51.072;13.526;2023-03-02T15:52:54;11.90;44.00
33865;DHT22;20159;51.072;13.526;2023-03-02T15:55:21;11.80;45.40
33865;DHT22;20159;51.072;13.526;2023-03-02T15:57:47;11.70;44.90
33865;DHT22;20159;51.072;13.526;2023-03-02T16:00:13;11.60;45.20
33865;DHT22;20159;51.072;13.526;2023-03-02T16:02:39;11.40;44.70
33865;DHT22;20159;51.072;13.526;2023-03-02T16:05:05;11.40;44.00
33865;DHT22;20159;51.072;13.526;2023-03-02T16:07:31;11.20;45.80
33865;DHT22;20159;51.072;13.526;2023-03-02T16:09:56;11.10;45.30
33865;DHT22;20159;51.072;13.526;2023-03-02T16:12:25;11.00;45.60
33865;DHT22;20159;51.072;13.526;2023-03-02T16:14:50;10.90;45.90
33865;DHT22;20159;51.072;13.526;2023-03-02T16:17:16;10.80;47.10
33865;DHT22;20159;51.072;13.526;2023-03-02T16:19:43;10.70;47.90
33865;DHT22;20159;51.072;13.526;2023-03-02T16:22:09;10.60;46.80
33865;DHT22;20159;51.072;13.526;2023-03-02T16:24:34;10.50;47.90
33865;DHT22;20159;51.072;13.526;2023-03-02T16:27:00;10.40;48.50